sensor_id;sensor_type;location;lat;lon;timestamp;P1;durP1;ratioP1;P2;durP2;ratioP2
9042;SDS011;4556;49.150;8.808;2023-05-28T00:01:10;4.47;;;3.47;;
9042;SDS011;4556;49.150;8.808;2023-05-28T00:03:37;5.67;;;3.07;;
9042;SDS011;4556;49.150;8.808;2023-05-28T00:06:06;6.60;;;3.30;;
9042;SDS011;4556;49.150;8.808;2023-05-28T00:08:33;6.60;;;3.30;;
9042;SDS011;4556;49.150;8.808;2023-05-28T00:11:00;6.97;;;3.43;;
9042;SDS011;4556;49.150;8.808;2023-05-28T00:13:27;9.10;;;3.40;;
9042;SDS011;4556;49.150;8.808;2023-05-28T00:15:56;7.57;;;3.73;;
9042;SDS011;4556;49.150;8.808;2023-05-28T00:18:23;6.30;;;3.30;;
9042;SDS011;4556;49.150;8.808;2023-05-28T00:20:50;7.63;;;3.27;;
9042;SDS011;4556;49.150;8.808;2023-05-28T00:23:17;5.67;;;3.37;;
9042;SDS011;4556;49.150;8.808;2023-05-28T00:25:44;9.10;;;3.73;;
9042;SDS011;4556;49.150;8.808;2023-05-28T00:28:10;7.77;;;3.40;;
9042;SDS011;4556;49.150;8.808;2023-05-28T00:30:37;9.97;;;3.97;;
9042;SDS011;4556;49.150;8.808;2023-05-28T00:33:06;8.37;;;3.70;;
9042;SDS011;4556;49.150;8.808;2023-05-28T00:35:33;5.70;;;3.40;;
9042;SDS011;4556;49.150;8.808;2023-05-28T00:38:00;4.13;;;2.57;;
9042;SDS011;4556;49.150;8.808;2023-05-28T00:40:30;6.03;;;3.27;;
9042;SDS011;4556;49.150;8.808;2023-05-28T00:42:57;5.80;;;3.43;;
9042;SDS011;4556;49.150;8.808;2023-05-28T00:45:24;6.07;;;3.10;;
9042;SDS011;4556;49.150;8.808;2023-05-28T00:47:51;7.50;;;3.50;;
9042;SDS011;4556;49.150;8.808;2023-05-28T00:50:20;8.20;;;3.67;;
9042;SDS011;4556;49.150;8.808;2023-05-28T00:52:47;5.20;;;3.30;;
9042;SDS011;4556;49.150;8.808;2023-05-28T00:55:17;6.93;;;3.83;;
9042;SDS011;4556;49.150;8.808;2023-05-28T00:57:45;8.63;;;4.07;;
9042;SDS011;4556;49.150;8.808;2023-05-28T01:00:13;5.50;;;2.90;;
9042;SDS011;4556;49.150;8.808;2023-05-28T01:02:41;6.10;;;3.17;;
9042;SDS011;4556;49.150;8.808;2023-05-28T01:05:09;9.37;;;3.73;;
9042;SDS011;4556;49.150;8.808;2023-05-28T01:07:37;5.60;;;3.60;;
9042;SDS011;4556;49.150;8.808;2023-05-28T01:10:04;8.97;;;3.93;;
9042;SDS011;4556;49.150;8.808;2023-05-28T01:12:32;7.23;;;3.70;;
9042;SDS011;4556;49.150;8.808;2023-05-28T01:15:01;8.70;;;3.97;;
9042;SDS011;4556;49.150;8.808;2023-05-28T01:17:29;10.13;;;3.50;;
9042;SDS011;4556;49.150;8.808;2023-05-28T01:19:56;11.60;;;3.87;;
9042;SDS011;4556;49.150;8.808;2023-05-28T01:22:30;5.67;;;3.43;;
9042;SDS011;4556;49.150;8.808;2023-05-28T01:25:05;6.77;;;3.30;;
9042;SDS011;4556;49.150;8.808;2023-05-28T01:27:35;7.80;;;3.73;;
9042;SDS011;4556;49.150;8.808;2023-05-28T01:30:05;10.23;;;3.90;;
9042;SDS011;4556;49.150;8.808;2023-05-28T01:32:34;7.90;;;3.60;;
9042;SDS011;4556;49.150;8.808;2023-05-28T01:35:02;8.23;;;3.50;;
9042;SDS011;4556;49.150;8.808;2023-05-28T01:37:29;6.73;;;3.23;;
9042;SDS011;4556;49.150;8.808;2023-05-28T01:39:58;8.07;;;3.77;;
9042;SDS011;4556;49.150;8.808;2023-05-28T01:42:27;7.77;;;3.80;;
9042;SDS011;4556;49.150;8.808;2023-05-28T01:44:55;6.67;;;3.63;;
9042;SDS011;4556;49.150;8.808;2023-05-28T01:47:23;8.57;;;3.17;;
9042;SDS011;4556;49.150;8.808;2023-05-28T01:49:50;8.80;;;3.80;;
9042;SDS011;4556;49.150;8.808;2023-05-28T01:52:17;7.50;;;3.67;;
9042;SDS011;4556;49.150;8.808;2023-05-28T01:54:45;7.23;;;3.70;;
9042;SDS011;4556;49.150;8.808;2023-05-28T01:57:11;7.50;;;3.73;;
9042;SDS011;4556;49.150;8.808;2023-05-28T01:59:41;6.90;;;3.70;;
9042;SDS011;4556;49.150;8.808;2023-05-28T02:02:08;5.37;;;3.57;;
9042;SDS011;4556;49.150;8.808;2023-05-28T02:04:35;9.00;;;3.87;;
9042;SDS011;4556;49.150;8.808;2023-05-28T02:07:02;7.40;;;4.00;;
9042;SDS011;4556;49.150;8.808;2023-05-28T02:09:29;8.37;;;4.00;;
9042;SDS011;4556;49.150;8.808;2023-05-28T02:11:56;8.80;;;3.80;;
9042;SDS011;4556;49.150;8.808;2023-05-28T02:14:27;7.37;;;4.10;;
9042;SDS011;4556;49.150;8.808;2023-05-28T02:16:56;7.00;;;3.67;;
9042;SDS011;4556;49.150;8.808;2023-05-28T02:19:23;8.63;;;3.50;;
9042;SDS011;4556;49.150;8.808;2023-05-28T02:21:50;6.60;;;3.80;;
9042;SDS011;4556;49.150;8.808;2023-05-28T02:24:18;7.20;;;3.93;;
9042;SDS011;4556;49.150;8.808;2023-05-28T02:26:45;10.07;;;4.17;;
9042;SDS011;4556;49.150;8.808;2023-05-28T02:29:12;7.47;;;3.90;;
9042;SDS011;4556;49.150;8.808;2023-05-28T02:31:39;8.60;;;3.50;;
9042;SDS011;4556;49.150;8.808;2023-05-28T02:34:07;7.20;;;3.63;;
9042;SDS011;4556;49.150;8.808;2023-05-28T02:36:34;7.33;;;4.03;;
9042;SDS011;4556;49.150;8.808;2023-05-28T02:39:02;7.10;;;3.83;;
9042;SDS011;4556;49.150;8.808;2023-05-28T02:41:29;8.90;;;3.27;;
9042;SDS011;4556;49.150;8.808;2023-05-28T02:43:56;8.23;;;4.10;;
9042;SDS011;4556;49.150;8.808;2023-05-28T02:46:23;8.20;;;3.83;;
9042;SDS011;4556;49.150;8.808;2023-05-28T02:48:50;6.67;;;3.77;;
9042;SDS011;4556;49.150;8.808;2023-05-28T02:51:18;6.53;;;3.40;;
9042;SDS011;4556;49.150;8.808;2023-05-28T02:53:45;5.73;;;3.40;;
9042;SDS011;4556;49.150;8.808;2023-05-28T02:56:12;6.03;;;3.60;;
9042;SDS011;4556;49.150;8.808;2023-05-28T02:58:39;8.40;;;3.77;;
9042;SDS011;4556;49.150;8.808;2023-05-28T03:01:06;5.20;;;3.93;;
9042;SDS011;4556;49.150;8.808;2023-05-28T03:03:33;7.27;;;4.37;;
9042;SDS011;4556;49.150;8.808;2023-05-28T03:06:00;8.33;;;3.93;;
9042;SDS011;4556;49.150;8.808;2023-05-28T03:08:29;7.67;;;4.20;;
9042;SDS011;4556;49.150;8.808;2023-05-28T03:10:56;9.37;;;4.47;;
9042;SDS011;4556;49.150;8.808;2023-05-28T03:13:23;8.63;;;3.60;;
9042;SDS011;4556;49.150;8.808;2023-05-28T03:15:50;7.13;;;3.97;;
9042;SDS011;4556;49.150;8.808;2023-05-28T03:18:17;8.67;;;4.17;;
9042;SDS011;4556;49.150;8.808;2023-05-28T03:20:43;7.53;;;4.00;;
9042;SDS011;4556;49.150;8.808;2023-05-28T03:23:10;8.73;;;3.90;;
9042;SDS011;4556;49.150;8.808;2023-05-28T03:25:39;8.77;;;3.90;;
9042;SDS011;4556;49.150;8.808;2023-05-28T03:28:05;6.47;;;3.63;;
9042;SDS011;4556;49.150;8.808;2023-05-28T03:30:33;7.83;;;4.33;;
9042;SDS011;4556;49.150;8.808;2023-05-28T03:33:00;9.23;;;4.50;;
9042;SDS011;4556;49.150;8.808;2023-05-28T03:35:27;9.67;;;4.30;;
9042;SDS011;4556;49.150;8.808;2023-05-28T03:37:53;7.57;;;4.07;;
9042;SDS011;4556;49.150;8.808;2023-05-28T03:40:25;7.63;;;3.63;;
9042;SDS011;4556;49.150;8.808;2023-05-28T03:42:53;8.77;;;4.40;;
9042;SDS011;4556;49.150;8.808;2023-05-28T03:45:20;10.40;;;4.90;;
9042;SDS011;4556;49.150;8.808;2023-05-28T03:47:47;9.03;;;4.10;;
9042;SDS011;4556;49.150;8.808;2023-05-28T03:50:14;7.07;;;3.97;;
9042;SDS011;4556;49.150;8.808;2023-05-28T03:52:41;8.53;;;4.43;;
9042;SDS011;4556;49.150;8.808;2023-05-28T03:55:08;9.13;;;4.27;;
9042;SDS011;4556;49.150;8.808;2023-05-28T03:57:35;7.77;;;4.00;;
9042;SDS011;4556;49.150;8.808;2023-05-28T04:00:04;8.60;;;4.47;;
9042;SDS011;4556;49.150;8.808;2023-05-28T04:02:34;8.03;;;4.50;;
9042;SDS011;4556;49.150;8.808;2023-05-28T04:05:00;9.37;;;4.57;;
9042;SDS011;4556;49.150;8.808;2023-05-28T04:07:27;6.73;;;4.37;;
9042;SDS011;4556;49.150;8.808;2023-05-28T04:09:54;9.00;;;4.40;;
9042;SDS011;4556;49.150;8.808;2023-05-28T04:12:21;8.43;;;4.50;;
9042;SDS011;4556;49.150;8.808;2023-05-28T04:14:48;6.27;;;4.00;;
9042;SDS011;4556;49.150;8.808;2023-05-28T04:17:16;6.63;;;4.33;;
9042;SDS011;4556;49.150;8.808;2023-05-28T04:19:44;7.67;;;3.77;;
9042;SDS011;4556;49.150;8.808;2023-05-28T04:22:10;7.47;;;4.30;;
9042;SDS011;4556;49.150;8.808;2023-05-28T04:24:37;9.20;;;4.73;;
9042;SDS011;4556;49.150;8.808;2023-05-28T04:27:04;7.43;;;4.30;;
9042;SDS011;4556;49.150;8.808;2023-05-28T04:29:31;7.30;;;4.03;;
9042;SDS011;4556;49.150;8.808;2023-05-28T04:31:58;10.90;;;4.37;;
9042;SDS011;4556;49.150;8.808;2023-05-28T04:34:26;7.03;;;3.77;;
9042;SDS011;4556;49.150;8.808;2023-05-28T04:36:53;7.70;;;4.40;;
9042;SDS011;4556;49.150;8.808;2023-05-28T04:39:27;9.33;;;4.37;;
9042;SDS011;4556;49.150;8.808;2023-05-28T04:41:54;8.10;;;4.37;;
9042;SDS011;4556;49.150;8.808;2023-05-28T04:44:21;6.53;;;4.30;;
9042;SDS011;4556;49.150;8.808;2023-05-28T04:46:50;7.43;;;3.97;;
9042;SDS011;4556;49.150;8.808;2023-05-28T04:49:17;9.33;;;3.87;;
9042;SDS011;4556;49.150;8.808;2023-05-28T04:51:46;7.37;;;3.97;;
9042;SDS011;4556;49.150;8.808;2023-05-28T04:54:12;5.67;;;3.83;;
9042;SDS011;4556;49.150;8.808;2023-05-28T04:56:39;9.83;;;4.23;;
9042;SDS011;4556;49.150;8.808;2023-05-28T04:59:06;7.00;;;3.70;;
9042;SDS011;4556;49.150;8.808;2023-05-28T05:01:34;7.67;;;4.20;;
9042;SDS011;4556;49.150;8.808;2023-05-28T05:04:01;8.70;;;4.57;;
9042;SDS011;4556;49.150;8.808;2023-05-28T05:06:28;8.67;;;4.17;;
9042;SDS011;4556;49.150;8.808;2023-05-28T05:08:56;5.87;;;3.73;;
9042;SDS011;4556;49.150;8.808;2023-05-28T05:11:23;5.87;;;3.43;;
9042;SDS011;4556;49.150;8.808;2023-05-28T05:13:51;6.13;;;4.30;;
9042;SDS011;4556;49.150;8.808;2023-05-28T05:16:18;7.77;;;4.40;;
9042;SDS011;4556;49.150;8.808;2023-05-28T05:18:46;6.43;;;4.03;;
9042;SDS011;4556;49.150;8.808;2023-05-28T05:21:13;7.67;;;3.73;;
9042;SDS011;4556;49.150;8.808;2023-05-28T05:23:40;6.47;;;3.47;;
9042;SDS011;4556;49.150;8.808;2023-05-28T05:26:08;6.40;;;3.43;;
9042;SDS011;4556;49.150;8.808;2023-05-28T05:28:37;7.27;;;3.80;;
9042;SDS011;4556;49.150;8.808;2023-05-28T05:31:04;7.33;;;3.70;;
9042;SDS011;4556;49.150;8.808;2023-05-28T05:33:31;6.63;;;4.03;;
9042;SDS011;4556;49.150;8.808;2023-05-28T05:35:58;8.33;;;4.07;;
9042;SDS011;4556;49.150;8.808;2023-05-28T05:38:26;6.30;;;3.53;;
9042;SDS011;4556;49.150;8.808;2023-05-28T05:40:54;7.13;;;4.00;;
9042;SDS011;4556;49.150;8.808;2023-05-28T05:43:23;6.17;;;3.60;;
9042;SDS011;4556;49.150;8.808;2023-05-28T05:45:50;6.83;;;3.40;;
9042;SDS011;4556;49.150;8.808;2023-05-28T05:48:17;7.03;;;3.40;;
9042;SDS011;4556;49.150;8.808;2023-05-28T05:50:47;7.57;;;4.00;;
9042;SDS011;4556;49.150;8.808;2023-05-28T05:53:15;5.27;;;3.43;;
9042;SDS011;4556;49.150;8.808;2023-05-28T05:55:42;9.03;;;4.40;;
9042;SDS011;4556;49.150;8.808;2023-05-28T05:58:09;7.23;;;3.57;;
9042;SDS011;4556;49.150;8.808;2023-05-28T06:00:38;7.33;;;3.43;;
9042;SDS011;4556;49.150;8.808;2023-05-28T06:03:04;5.50;;;3.60;;
9042;SDS011;4556;49.150;8.808;2023-05-28T06:05:32;8.83;;;3.50;;
9042;SDS011;4556;49.150;8.808;2023-05-28T06:07:59;7.80;;;3.60;;
9042;SDS011;4556;49.150;8.808;2023-05-28T06:10:27;7.00;;;3.63;;
9042;SDS011;4556;49.150;8.808;2023-05-28T06:12:54;8.33;;;4.17;;
9042;SDS011;4556;49.150;8.808;2023-05-28T06:15:21;6.60;;;3.60;;
9042;SDS011;4556;49.150;8.808;2023-05-28T06:17:51;7.97;;;4.13;;
9042;SDS011;4556;49.150;8.808;2023-05-28T06:20:18;8.70;;;3.83;;
9042;SDS011;4556;49.150;8.808;2023-05-28T06:22:45;7.53;;;3.43;;
9042;SDS011;4556;49.150;8.808;2023-05-28T06:25:13;6.87;;;3.50;;
9042;SDS011;4556;49.150;8.808;2023-05-28T06:27:41;6.90;;;3.90;;
9042;SDS011;4556;49.150;8.808;2023-05-28T06:30:08;7.20;;;4.00;;
9042;SDS011;4556;49.150;8.808;2023-05-28T06:32:36;7.10;;;3.40;;
9042;SDS011;4556;49.150;8.808;2023-05-28T06:35:05;6.97;;;3.70;;
9042;SDS011;4556;49.150;8.808;2023-05-28T06:37:32;8.00;;;4.00;;
9042;SDS011;4556;49.150;8.808;2023-05-28T06:39:59;8.27;;;3.77;;
9042;SDS011;4556;49.150;8.808;2023-05-28T06:42:28;7.43;;;3.70;;
9042;SDS011;4556;49.150;8.808;2023-05-28T06:44:55;9.13;;;3.67;;
9042;SDS011;4556;49.150;8.808;2023-05-28T06:47:23;7.20;;;3.23;;
9042;SDS011;4556;49.150;8.808;2023-05-28T06:49:50;8.27;;;4.00;;
9042;SDS011;4556;49.150;8.808;2023-05-28T06:52:19;7.10;;;3.57;;
9042;SDS011;4556;49.150;8.808;2023-05-28T06:54:46;6.27;;;3.80;;
9042;SDS011;4556;49.150;8.808;2023-05-28T06:57:13;11.03;;;4.10;;
9042;SDS011;4556;49.150;8.808;2023-05-28T06:59:40;5.67;;;3.37;;
9042;SDS011;4556;49.150;8.808;2023-05-28T07:02:07;11.77;;;3.63;;
9042;SDS011;4556;49.150;8.808;2023-05-28T07:04:34;5.53;;;3.50;;
9042;SDS011;4556;49.150;8.808;2023-05-28T07:07:01;7.53;;;3.60;;
9042;SDS011;4556;49.150;8.808;2023-05-28T07:09:30;7.00;;;3.37;;
9042;SDS011;4556;49.150;8.808;2023-05-28T07:11:57;6.87;;;3.60;;
9042;SDS011;4556;49.150;8.808;2023-05-28T07:14:24;5.57;;;3.40;;
9042;SDS011;4556;49.150;8.808;2023-05-28T07:16:51;6.30;;;3.73;;
9042;SDS011;4556;49.150;8.808;2023-05-28T07:19:18;6.57;;;3.60;;
9042;SDS011;4556;49.150;8.808;2023-05-28T07:21:45;9.07;;;3.87;;
9042;SDS011;4556;49.150;8.808;2023-05-28T07:24:12;7.90;;;3.70;;
9042;SDS011;4556;49.150;8.808;2023-05-28T07:26:41;7.40;;;3.97;;
9042;SDS011;4556;49.150;8.808;2023-05-28T07:29:07;4.63;;;3.37;;
9042;SDS011;4556;49.150;8.808;2023-05-28T07:31:34;8.17;;;3.60;;
9042;SDS011;4556;49.150;8.808;2023-05-28T07:34:03;6.90;;;4.20;;
9042;SDS011;4556;49.150;8.808;2023-05-28T07:36:30;8.13;;;3.80;;
9042;SDS011;4556;49.150;8.808;2023-05-28T07:38:57;8.40;;;3.83;;
9042;SDS011;4556;49.150;8.808;2023-05-28T07:41:26;7.13;;;3.90;;
9042;SDS011;4556;49.150;8.808;2023-05-28T07:43:54;7.70;;;3.67;;
9042;SDS011;4556;49.150;8.808;2023-05-28T07:46:21;8.07;;;3.90;;
9042;SDS011;4556;49.150;8.808;2023-05-28T07:48:48;8.57;;;4.10;;
9042;SDS011;4556;49.150;8.808;2023-05-28T07:51:16;9.00;;;3.77;;
9042;SDS011;4556;49.150;8.808;2023-05-28T07:53:43;5.50;;;3.87;;
9042;SDS011;4556;49.150;8.808;2023-05-28T07:56:10;6.50;;;3.33;;
9042;SDS011;4556;49.150;8.808;2023-05-28T07:58:38;6.00;;;3.53;;
9042;SDS011;4556;49.150;8.808;2023-05-28T08:01:09;7.57;;;3.77;;
9042;SDS011;4556;49.150;8.808;2023-05-28T08:03:36;6.93;;;3.70;;
9042;SDS011;4556;49.150;8.808;2023-05-28T08:06:03;5.80;;;3.27;;
9042;SDS011;4556;49.150;8.808;2023-05-28T08:08:31;7.83;;;3.70;;
9042;SDS011;4556;49.150;8.808;2023-05-28T08:10:58;7.07;;;3.10;;
9042;SDS011;4556;49.150;8.808;2023-05-28T08:13:25;9.07;;;3.70;;
9042;SDS011;4556;49.150;8.808;2023-05-28T08:15:52;7.33;;;3.67;;
9042;SDS011;4556;49.150;8.808;2023-05-28T08:18:20;8.80;;;4.10;;
9042;SDS011;4556;49.150;8.808;2023-05-28T08:20:47;7.00;;;3.73;;
9042;SDS011;4556;49.150;8.808;2023-05-28T08:23:14;7.03;;;3.50;;
9042;SDS011;4556;49.150;8.808;2023-05-28T08:25:41;12.23;;;4.10;;
9042;SDS011;4556;49.150;8.808;2023-05-28T08:28:08;9.20;;;3.77;;
9042;SDS011;4556;49.150;8.808;2023-05-28T08:30:35;7.80;;;3.53;;
9042;SDS011;4556;49.150;8.808;2023-05-28T08:33:02;7.77;;;3.27;;
9042;SDS011;4556;49.150;8.808;2023-05-28T08:35:31;7.67;;;3.70;;
9042;SDS011;4556;49.150;8.808;2023-05-28T08:37:58;7.53;;;3.63;;
9042;SDS011;4556;49.150;8.808;2023-05-28T08:40:26;10.03;;;3.60;;
9042;SDS011;4556;49.150;8.808;2023-05-28T08:42:54;10.03;;;3.87;;
9042;SDS011;4556;49.150;8.808;2023-05-28T08:45:21;8.23;;;3.77;;
9042;SDS011;4556;49.150;8.808;2023-05-28T08:47:48;5.83;;;3.50;;
9042;SDS011;4556;49.150;8.808;2023-05-28T08:50:16;7.53;;;3.67;;
9042;SDS011;4556;49.150;8.808;2023-05-28T08:52:45;7.27;;;3.30;;
9042;SDS011;4556;49.150;8.808;2023-05-28T08:55:14;7.47;;;3.27;;
9042;SDS011;4556;49.150;8.808;2023-05-28T08:57:41;8.90;;;3.43;;
9042;SDS011;4556;49.150;8.808;2023-05-28T09:00:11;7.63;;;3.67;;
9042;SDS011;4556;49.150;8.808;2023-05-28T09:02:39;5.53;;;3.33;;
9042;SDS011;4556;49.150;8.808;2023-05-28T09:05:06;10.80;;;3.53;;
9042;SDS011;4556;49.150;8.808;2023-05-28T09:07:34;7.60;;;3.30;;
9042;SDS011;4556;49.150;8.808;2023-05-28T09:10:03;6.70;;;3.30;;
9042;SDS011;4556;49.150;8.808;2023-05-28T09:12:30;8.70;;;3.63;;
9042;SDS011;4556;49.150;8.808;2023-05-28T09:14:57;7.20;;;3.57;;
9042;SDS011;4556;49.150;8.808;2023-05-28T09:17:33;9.93;;;3.90;;
9042;SDS011;4556;49.150;8.808;2023-05-28T09:20:01;8.23;;;3.60;;
9042;SDS011;4556;49.150;8.808;2023-05-28T09:22:36;7.77;;;3.33;;
9042;SDS011;4556;49.150;8.808;2023-05-28T09:25:06;6.77;;;3.53;;
9042;SDS011;4556;49.150;8.808;2023-05-28T09:27:33;8.53;;;3.50;;
9042;SDS011;4556;49.150;8.808;2023-05-28T09:30:01;7.00;;;3.70;;
9042;SDS011;4556;49.150;8.808;2023-05-28T09:32:30;8.43;;;3.50;;
9042;SDS011;4556;49.150;8.808;2023-05-28T09:34:59;8.80;;;3.57;;
9042;SDS011;4556;49.150;8.808;2023-05-28T09:37:28;7.43;;;3.37;;
9042;SDS011;4556;49.150;8.808;2023-05-28T09:39:59;8.50;;;4.07;;
9042;SDS011;4556;49.150;8.808;2023-05-28T09:42:34;6.73;;;3.60;;
9042;SDS011;4556;49.150;8.808;2023-05-28T09:45:04;5.97;;;3.17;;
9042;SDS011;4556;49.150;8.808;2023-05-28T09:47:33;9.77;;;3.50;;
9042;SDS011;4556;49.150;8.808;2023-05-28T09:50:08;8.10;;;3.67;;
9042;SDS011;4556;49.150;8.808;2023-05-28T09:52:35;9.53;;;3.90;;
9042;SDS011;4556;49.150;8.808;2023-05-28T09:55:04;8.50;;;3.40;;
9042;SDS011;4556;49.150;8.808;2023-05-28T09:57:35;5.80;;;3.07;;
9042;SDS011;4556;49.150;8.808;2023-05-28T10:00:06;5.80;;;3.10;;
9042;SDS011;4556;49.150;8.808;2023-05-28T10:02:46;6.00;;;3.23;;
9042;SDS011;4556;49.150;8.808;2023-05-28T10:05:21;6.37;;;3.10;;
9042;SDS011;4556;49.150;8.808;2023-05-28T10:07:52;7.30;;;3.27;;
9042;SDS011;4556;49.150;8.808;2023-05-28T10:10:20;7.67;;;3.20;;
9042;SDS011;4556;49.150;8.808;2023-05-28T10:12:48;7.33;;;3.27;;
9042;SDS011;4556;49.150;8.808;2023-05-28T10:15:18;7.17;;;3.37;;
9042;SDS011;4556;49.150;8.808;2023-05-28T10:17:45;9.43;;;3.13;;
9042;SDS011;4556;49.150;8.808;2023-05-28T10:20:13;8.87;;;3.20;;
9042;SDS011;4556;49.150;8.808;2023-05-28T10:22:41;6.90;;;3.20;;
9042;SDS011;4556;49.150;8.808;2023-05-28T10:25:08;6.73;;;3.33;;
9042;SDS011;4556;49.150;8.808;2023-05-28T10:27:36;8.30;;;3.20;;
9042;SDS011;4556;49.150;8.808;2023-05-28T10:30:11;6.97;;;3.60;;
9042;SDS011;4556;49.150;8.808;2023-05-28T10:32:38;7.33;;;3.50;;
9042;SDS011;4556;49.150;8.808;2023-05-28T10:35:09;6.30;;;3.60;;
9042;SDS011;4556;49.150;8.808;2023-05-28T10:37:37;6.90;;;3.23;;
9042;SDS011;4556;49.150;8.808;2023-05-28T10:40:06;7.60;;;3.40;;
9042;SDS011;4556;49.150;8.808;2023-05-28T10:42:38;7.83;;;3.10;;
9042;SDS011;4556;49.150;8.808;2023-05-28T10:45:06;6.90;;;3.40;;
9042;SDS011;4556;49.150;8.808;2023-05-28T10:47:37;8.50;;;3.43;;
9042;SDS011;4556;49.150;8.808;2023-05-28T10:50:11;6.90;;;3.40;;
9042;SDS011;4556;49.150;8.808;2023-05-28T10:52:39;8.17;;;3.27;;
9042;SDS011;4556;49.150;8.808;2023-05-28T10:55:07;5.67;;;3.17;;
9042;SDS011;4556;49.150;8.808;2023-05-28T10:57:39;7.83;;;3.27;;
9042;SDS011;4556;49.150;8.808;2023-05-28T11:00:07;5.63;;;3.10;;
9042;SDS011;4556;49.150;8.808;2023-05-28T11:02:39;5.80;;;2.97;;
9042;SDS011;4556;49.150;8.808;2023-05-28T11:05:10;7.87;;;3.70;;
9042;SDS011;4556;49.150;8.808;2023-05-28T11:07:37;8.17;;;3.20;;
9042;SDS011;4556;49.150;8.808;2023-05-28T11:10:06;8.33;;;3.33;;
9042;SDS011;4556;49.150;8.808;2023-05-28T11:12:35;5.73;;;3.00;;
9042;SDS011;4556;49.150;8.808;2023-05-28T11:15:03;6.27;;;2.90;;
9042;SDS011;4556;49.150;8.808;2023-05-28T11:17:35;8.03;;;3.20;;
9042;SDS011;4556;49.150;8.808;2023-05-28T11:20:14;5.43;;;2.67;;
9042;SDS011;4556;49.150;8.808;2023-05-28T11:22:42;5.57;;;3.10;;
9042;SDS011;4556;49.150;8.808;2023-05-28T11:25:09;7.10;;;3.30;;
9042;SDS011;4556;49.150;8.808;2023-05-28T11:27:37;7.97;;;3.80;;
9042;SDS011;4556;49.150;8.808;2023-05-28T11:30:07;8.63;;;3.63;;
9042;SDS011;4556;49.150;8.808;2023-05-28T11:32:36;6.33;;;3.57;;
9042;SDS011;4556;49.150;8.808;2023-05-28T11:35:05;7.43;;;3.50;;
9042;SDS011;4556;49.150;8.808;2023-05-28T11:37:32;5.80;;;3.37;;
9042;SDS011;4556;49.150;8.808;2023-05-28T11:40:01;6.80;;;3.37;;
9042;SDS011;4556;49.150;8.808;2023-05-28T11:42:31;6.40;;;3.27;;
9042;SDS011;4556;49.150;8.808;2023-05-28T11:44:58;7.23;;;3.30;;
9042;SDS011;4556;49.150;8.808;2023-05-28T11:47:25;6.47;;;2.83;;
9042;SDS011;4556;49.150;8.808;2023-05-28T11:49:52;6.97;;;3.50;;
9042;SDS011;4556;49.150;8.808;2023-05-28T11:52:23;5.80;;;3.47;;
9042;SDS011;4556;49.150;8.808;2023-05-28T11:54:52;8.77;;;3.53;;
9042;SDS011;4556;49.150;8.808;2023-05-28T11:57:20;7.70;;;3.47;;
9042;SDS011;4556;49.150;8.808;2023-05-28T11:59:54;6.20;;;3.30;;
9042;SDS011;4556;49.150;8.808;2023-05-28T12:02:22;6.27;;;3.53;;
9042;SDS011;4556;49.150;8.808;2023-05-28T12:04:53;8.53;;;3.50;;
9042;SDS011;4556;49.150;8.808;2023-05-28T12:07:22;5.70;;;3.30;;
9042;SDS011;4556;49.150;8.808;2023-05-28T12:10:00;6.83;;;3.37;;
9042;SDS011;4556;49.150;8.808;2023-05-28T12:12:29;5.13;;;3.17;;
9042;SDS011;4556;49.150;8.808;2023-05-28T12:14:57;8.37;;;3.53;;
9042;SDS011;4556;49.150;8.808;2023-05-28T12:17:24;6.67;;;3.33;;
9042;SDS011;4556;49.150;8.808;2023-05-28T12:19:51;8.13;;;3.60;;
9042;SDS011;4556;49.150;8.808;2023-05-28T12:22:18;7.37;;;3.87;;
9042;SDS011;4556;49.150;8.808;2023-05-28T12:24:50;10.17;;;3.50;;
9042;SDS011;4556;49.150;8.808;2023-05-28T12:27:18;8.20;;;3.40;;
9042;SDS011;4556;49.150;8.808;2023-05-28T12:29:47;8.83;;;3.60;;
9042;SDS011;4556;49.150;8.808;2023-05-28T12:32:14;7.53;;;3.47;;
9042;SDS011;4556;49.150;8.808;2023-05-28T12:34:41;5.83;;;3.37;;
9042;SDS011;4556;49.150;8.808;2023-05-28T12:37:09;6.47;;;3.63;;
9042;SDS011;4556;49.150;8.808;2023-05-28T12:39:36;6.77;;;3.57;;
9042;SDS011;4556;49.150;8.808;2023-05-28T12:42:05;7.40;;;3.60;;
9042;SDS011;4556;49.150;8.808;2023-05-28T12:44:32;8.37;;;3.67;;
9042;SDS011;4556;49.150;8.808;2023-05-28T12:46:59;6.13;;;3.30;;
9042;SDS011;4556;49.150;8.808;2023-05-28T12:49:26;7.13;;;3.50;;
9042;SDS011;4556;49.150;8.808;2023-05-28T12:51:53;7.10;;;3.70;;
9042;SDS011;4556;49.150;8.808;2023-05-28T12:54:20;7.10;;;3.07;;
9042;SDS011;4556;49.150;8.808;2023-05-28T12:56:47;5.83;;;3.67;;
9042;SDS011;4556;49.150;8.808;2023-05-28T12:59:22;6.30;;;3.47;;
9042;SDS011;4556;49.150;8.808;2023-05-28T13:01:50;7.63;;;4.00;;
9042;SDS011;4556;49.150;8.808;2023-05-28T13:04:17;5.53;;;3.43;;
9042;SDS011;4556;49.150;8.808;2023-05-28T13:06:44;6.07;;;3.90;;
9042;SDS011;4556;49.150;8.808;2023-05-28T13:09:12;7.30;;;3.53;;
9042;SDS011;4556;49.150;8.808;2023-05-28T13:11:40;8.90;;;4.03;;
9042;SDS011;4556;49.150;8.808;2023-05-28T13:14:08;6.83;;;3.97;;
9042;SDS011;4556;49.150;8.808;2023-05-28T13:16:37;7.63;;;3.90;;
9042;SDS011;4556;49.150;8.808;2023-05-28T13:19:04;7.80;;;4.23;;
9042;SDS011;4556;49.150;8.808;2023-05-28T13:21:32;6.60;;;3.77;;
9042;SDS011;4556;49.150;8.808;2023-05-28T13:24:00;6.97;;;3.57;;
9042;SDS011;4556;49.150;8.808;2023-05-28T13:26:29;6.23;;;3.80;;
9042;SDS011;4556;49.150;8.808;2023-05-28T13:28:57;8.00;;;3.73;;
9042;SDS011;4556;49.150;8.808;2023-05-28T13:31:25;7.87;;;4.00;;
9042;SDS011;4556;49.150;8.808;2023-05-28T13:33:53;11.30;;;4.40;;
9042;SDS011;4556;49.150;8.808;2023-05-28T13:36:20;6.87;;;4.17;;
9042;SDS011;4556;49.150;8.808;2023-05-28T13:38:49;7.20;;;3.97;;
9042;SDS011;4556;49.150;8.808;2023-05-28T13:41:19;6.77;;;3.90;;
9042;SDS011;4556;49.150;8.808;2023-05-28T13:43:50;7.27;;;4.30;;
9042;SDS011;4556;49.150;8.808;2023-05-28T13:46:19;9.23;;;4.33;;
9042;SDS011;4556;49.150;8.808;2023-05-28T13:48:46;8.97;;;4.03;;
9042;SDS011;4556;49.150;8.808;2023-05-28T13:51:14;8.50;;;3.90;;
9042;SDS011;4556;49.150;8.808;2023-05-28T13:53:41;6.53;;;3.70;;
9042;SDS011;4556;49.150;8.808;2023-05-28T13:56:10;10.50;;;3.90;;
9042;SDS011;4556;49.150;8.808;2023-05-28T13:58:37;6.63;;;4.00;;
9042;SDS011;4556;49.150;8.808;2023-05-28T14:01:04;9.63;;;4.63;;
9042;SDS011;4556;49.150;8.808;2023-05-28T14:03:31;9.27;;;4.73;;
9042;SDS011;4556;49.150;8.808;2023-05-28T14:05:59;7.37;;;4.17;;
9042;SDS011;4556;49.150;8.808;2023-05-28T14:08:27;7.43;;;4.67;;
9042;SDS011;4556;49.150;8.808;2023-05-28T14:10:54;7.50;;;4.30;;
9042;SDS011;4556;49.150;8.808;2023-05-28T14:13:21;6.90;;;4.10;;
9042;SDS011;4556;49.150;8.808;2023-05-28T14:15:52;7.53;;;4.23;;
9042;SDS011;4556;49.150;8.808;2023-05-28T14:18:20;6.83;;;4.13;;
9042;SDS011;4556;49.150;8.808;2023-05-28T14:20:47;8.13;;;3.97;;
9042;SDS011;4556;49.150;8.808;2023-05-28T14:23:13;9.17;;;4.90;;
9042;SDS011;4556;49.150;8.808;2023-05-28T14:25:42;6.00;;;4.20;;
9042;SDS011;4556;49.150;8.808;2023-05-28T14:28:09;9.77;;;4.33;;
9042;SDS011;4556;49.150;8.808;2023-05-28T14:30:36;7.93;;;4.33;;
9042;SDS011;4556;49.150;8.808;2023-05-28T14:33:03;8.77;;;4.40;;
9042;SDS011;4556;49.150;8.808;2023-05-28T14:35:30;6.43;;;4.30;;
9042;SDS011;4556;49.150;8.808;2023-05-28T14:37:57;6.77;;;4.60;;
9042;SDS011;4556;49.150;8.808;2023-05-28T14:40:24;8.57;;;4.80;;
9042;SDS011;4556;49.150;8.808;2023-05-28T14:42:52;5.70;;;4.20;;
9042;SDS011;4556;49.150;8.808;2023-05-28T14:45:19;10.43;;;4.47;;
9042;SDS011;4556;49.150;8.808;2023-05-28T14:47:46;7.23;;;4.50;;
9042;SDS011;4556;49.150;8.808;2023-05-28T14:50:13;7.70;;;4.73;;
9042;SDS011;4556;49.150;8.808;2023-05-28T14:52:40;7.47;;;4.23;;
9042;SDS011;4556;49.150;8.808;2023-05-28T14:55:07;7.40;;;4.03;;
9042;SDS011;4556;49.150;8.808;2023-05-28T14:57:34;7.80;;;3.93;;
9042;SDS011;4556;49.150;8.808;2023-05-28T15:00:05;7.93;;;4.10;;
9042;SDS011;4556;49.150;8.808;2023-05-28T15:02:35;6.33;;;4.13;;
9042;SDS011;4556;49.150;8.808;2023-05-28T15:05:02;8.40;;;4.33;;
9042;SDS011;4556;49.150;8.808;2023-05-28T15:07:30;6.33;;;4.07;;
9042;SDS011;4556;49.150;8.808;2023-05-28T15:09:58;7.80;;;4.70;;
9042;SDS011;4556;49.150;8.808;2023-05-28T15:12:25;9.03;;;3.87;;
9042;SDS011;4556;49.150;8.808;2023-05-28T15:14:52;7.67;;;4.40;;
9042;SDS011;4556;49.150;8.808;2023-05-28T15:17:20;10.23;;;4.37;;
9042;SDS011;4556;49.150;8.808;2023-05-28T15:19:47;7.00;;;3.90;;